Аэропорт: Нариманово. Астрахань

ICAO: URWA

METAR:
2019/03/26 13:00
URWA 261300Z 18006MPS CAVOK 12/M03 Q1018 R09/010060 NOSIG RMK QFE766/1021
METAR:
2018/12/01 06:12
TAF TAF URWA 010500Z 0106/0118 08011G17MPS CAVOK 
      TEMPO 0106/0110 10013G20MPS